Time;durP1;ratioP1;P1;durP2;ratioP2;P2;SDS_P1;SDS_P2;PMS_P1;PMS_P2;Temp;Humidity;BMP_temperature;BMP_pressure;BME280_temperature;BME280_humidity;BME280_pressure;Samples;Min_cycle;Max_cycle;Signal;HPM_P1;HPM_P2
2023/06/19 00:01:06;;;;;;;5.53;5.23;;;;;;;21.94;59.05;100413.25;5033325;28;20840;-77
2023/06/19 00:03:33;;;;;;;5.20;4.87;;;;;;;21.92;59.07;100424.94;5032691;28;20226;-77
2023/06/19 00:05:59;;;;;;;4.97;4.67;;;;;;;21.80;58.56;100446.06;5033980;28;20226;-77
2023/06/19 00:08:25;;;;;;;5.70;5.20;;;;;;;21.72;58.72;100440.38;5033181;28;20276;-77
2023/06/19 00:10:53;;;;;;;5.30;4.90;;;;;;;21.65;58.78;100443.56;5034064;28;20732;-77
2023/06/19 00:13:19;;;;;;;5.40;5.00;;;;;;;21.64;58.39;100441.84;5035845;28;20229;-77
2023/06/19 00:15:46;;;;;;;5.60;5.20;;;;;;;21.66;58.28;100450.56;5038243;28;20202;-77
2023/06/19 00:18:13;;;;;;;5.37;4.97;;;;;;;21.65;58.39;100455.03;5037272;28;20323;-77
2023/06/19 00:20:39;;;;;;;5.17;4.87;;;;;;;21.66;58.58;100450.56;5037307;28;20657;-76
2023/06/19 00:23:10;;;;;;;5.03;4.67;;;;;;;21.61;58.19;100465.00;5033952;28;20228;-77
2023/06/19 00:25:36;;;;;;;5.37;4.97;;;;;;;21.60;57.92;100460.66;5033190;28;20787;-77
2023/06/19 00:28:13;;;;;;;5.20;4.90;;;;;;;21.62;57.81;100471.16;5032963;28;20687;-77
2023/06/19 00:30:39;;;;;;;6.43;4.77;;;;;;;21.63;57.33;100462.25;5032556;28;20288;-77
2023/06/19 00:33:06;;;;;;;4.43;4.23;;;;;;;21.63;57.40;100474.69;5031962;28;20222;-77
2023/06/19 00:35:33;;;;;;;5.03;4.73;;;;;;;21.64;57.74;100479.03;5031945;28;20268;-77
2023/06/19 00:38:00;;;;;;;6.17;5.67;;;;;;;21.64;58.18;100455.13;5031129;28;20289;-77
2023/06/19 00:40:29;;;;;;;5.67;5.27;;;;;;;21.61;57.85;100454.38;5031757;28;20210;-77
2023/06/19 00:42:55;;;;;;;4.93;4.63;;;;;;;21.58;58.11;100453.72;5030823;28;20878;-76
2023/06/19 00:45:24;;;;;;;4.67;4.37;;;;;;;21.56;57.92;100447.66;5031269;28;20276;-77
2023/06/19 00:47:51;;;;;;;5.37;5.03;;;;;;;21.59;58.13;100453.63;5032415;28;20203;-77
2023/06/19 00:50:17;;;;;;;4.90;4.60;;;;;;;21.61;58.42;100440.25;5029838;28;20647;-77
2023/06/19 00:52:44;;;;;;;5.87;5.37;;;;;;;21.53;58.05;100439.91;5031395;28;20731;-76
2023/06/19 00:55:11;;;;;;;4.73;4.43;;;;;;;21.56;58.26;100437.03;5032943;28;20195;-77
2023/06/19 00:57:39;;;;;;;4.93;4.63;;;;;;;21.58;57.88;100443.94;5032154;28;20647;-77
2023/06/19 01:00:07;;;;;;;4.97;4.67;;;;;;;21.58;58.16;100435.97;5031544;28;20214;-77
2023/06/19 01:02:36;;;;;;;5.03;4.60;;;;;;;21.59;58.65;100423.56;5031624;28;20308;-77
2023/06/19 01:05:03;;;;;;;5.07;4.73;;;;;;;21.58;59.46;100406.75;5031564;28;20206;-77
2023/06/19 01:07:35;;;;;;;5.00;4.70;;;;;;;21.59;59.76;100386.38;5030849;28;20213;-76
2023/06/19 01:10:06;;;;;;;5.43;5.00;;;;;;;21.56;60.17;100368.81;5031769;28;20276;-77
2023/06/19 01:12:36;;;;;;;5.03;4.73;;;;;;;21.57;60.88;100353.75;5031793;28;20222;-77
2023/06/19 01:15:05;;;;;;;4.83;4.53;;;;;;;21.54;60.21;100349.47;5031741;28;20279;-77
2023/06/19 01:17:32;;;;;;;4.80;4.50;;;;;;;21.52;59.55;100361.16;5032394;28;20240;-77
2023/06/19 01:20:06;;;;;;;5.03;4.63;;;;;;;21.51;59.84;100364.78;5030762;28;20244;-77
2023/06/19 01:22:34;;;;;;;4.90;4.60;;;;;;;21.42;60.57;100353.75;5030881;28;20261;-77
2023/06/19 01:25:00;;;;;;;4.35;4.15;;;;;;;21.41;60.30;100345.91;5031942;28;20202;-77
2023/06/19 01:27:29;;;;;;;4.70;4.40;;;;;;;21.34;59.49;100363.19;5031908;28;20206;-77
2023/06/19 01:29:57;;;;;;;5.00;4.70;;;;;;;21.16;56.68;100423.63;5031646;28;20202;-77
2023/06/19 01:32:30;;;;;;;5.63;5.23;;;;;;;21.14;56.37;100457.38;5031640;28;20765;-77
2023/06/19 01:34:59;;;;;;;5.13;4.63;;;;;;;21.06;55.50;100513.59;5031575;28;20210;-77
2023/06/19 01:37:27;;;;;;;5.23;4.83;;;;;;;21.17;56.21;100512.94;5031091;28;20218;-76
2023/06/19 01:39:56;;;;;;;4.97;4.63;;;;;;;21.23;57.22;100483.34;5031394;28;20222;-77
2023/06/19 01:42:23;;;;;;;4.73;4.40;;;;;;;21.21;58.48;100459.56;5031267;28;20222;-77
2023/06/19 01:44:51;;;;;;;5.20;4.90;;;;;;;21.22;58.96;100425.88;5031314;28;20206;-77
2023/06/19 01:47:19;;;;;;;5.57;5.17;;;;;;;21.19;59.46;100394.25;5031267;28;20222;-77
2023/06/19 01:49:46;;;;;;;5.20;4.90;;;;;;;21.18;60.24;100379.25;5030197;28;20241;-77
2023/06/19 01:52:13;;;;;;;5.10;4.70;;;;;;;21.11;60.72;100356.69;5035037;28;20728;-77
2023/06/19 01:54:39;;;;;;;4.93;4.43;;;;;;;21.08;59.88;100359.56;5026006;28;20396;-77
2023/06/19 01:57:08;;;;;;;5.00;4.70;;;;;;;21.01;59.43;100373.22;5035328;28;20206;-77
2023/06/19 01:59:35;;;;;;;5.33;4.93;;;;;;;20.63;56.27;100439.28;5034922;28;20207;-77
2023/06/19 02:02:03;;;;;;;4.70;4.40;;;;;;;20.69;58.10;100461.91;5034728;28;20217;-77
2023/06/19 02:04:30;;;;;;;5.00;4.70;;;;;;;20.77;59.22;100441.06;5034620;28;20567;-76
2023/06/19 02:06:56;;;;;;;5.23;4.93;;;;;;;20.82;59.54;100415.97;5034895;28;20285;-77
2023/06/19 02:09:22;;;;;;;4.73;4.43;;;;;;;20.83;59.60;100400.91;5034642;28;20807;-77
2023/06/19 02:11:49;;;;;;;5.10;4.80;;;;;;;20.87;59.58;100390.94;5035389;28;20206;-77
2023/06/19 02:14:17;;;;;;;4.70;4.37;;;;;;;20.87;59.77;100383.00;5033860;28;20272;-76
2023/06/19 02:16:43;;;;;;;4.97;4.57;;;;;;;20.89;59.69;100387.28;5027215;28;20216;-77
2023/06/19 02:19:11;;;;;;;5.40;5.10;;;;;;;20.89;60.64;100363.41;5035657;28;20256;-77
2023/06/19 02:21:37;;;;;;;4.97;4.67;;;;;;;20.90;59.90;100354.47;5034596;28;20198;-77
2023/06/19 02:24:04;;;;;;;5.23;4.93;;;;;;;20.94;59.96;100368.41;5033491;28;20218;-76
2023/06/19 02:26:31;;;;;;;4.93;4.53;;;;;;;20.95;60.33;100362.13;5034381;28;20708;-77
2023/06/19 02:28:57;;;;;;;4.70;4.40;;;;;;;20.98;60.38;100346.03;5034013;28;20210;-77
2023/06/19 02:31:25;;;;;;;5.10;4.70;;;;;;;20.96;60.77;100338.16;5034280;28;20206;-77
2023/06/19 02:33:52;;;;;;;5.33;4.93;;;;;;;20.97;60.44;100321.28;5034271;28;20226;-77
2023/06/19 02:36:19;;;;;;;5.23;4.83;;;;;;;20.95;60.40;100327.63;5033985;28;20202;-77
2023/06/19 02:38:46;;;;;;;5.10;4.80;;;;;;;20.94;61.47;100312.69;5033709;28;20198;-77
2023/06/19 02:41:12;;;;;;;5.30;5.00;;;;;;;20.90;62.22;100289.94;5034447;28;20253;-77
2023/06/19 02:43:38;;;;;;;5.33;4.83;;;;;;;20.78;61.55;100281.81;5033325;28;20275;-77
2023/06/19 02:46:05;;;;;;;5.40;4.57;;;;;;;20.62;61.25;100302.31;5034283;28;20234;-79
2023/06/19 02:48:32;;;;;;;4.97;4.53;;;;;;;20.64;62.39;100295.09;5034045;28;20206;-79
2023/06/19 02:50:59;;;;;;;5.40;5.00;;;;;;;20.68;62.23;100278.06;5033950;28;20256;-77
2023/06/19 02:53:25;;;;;;;5.13;4.73;;;;;;;20.75;62.08;100262.59;5032773;28;20237;-77
2023/06/19 02:55:51;;;;;;;5.03;4.73;;;;;;;20.78;62.08;100273.84;5033970;28;20735;-77
2023/06/19 02:58:18;;;;;;;5.00;4.70;;;;;;;20.78;62.18;100268.53;5033836;28;20210;-77
2023/06/19 03:00:45;;;;;;;5.07;4.77;;;;;;;20.72;61.75;100273.41;5037220;28;20252;-77
2023/06/19 03:03:12;;;;;;;5.80;5.40;;;;;;;20.76;62.04;100270.44;5022279;28;20218;-77
2023/06/19 03:05:40;;;;;;;5.20;4.80;;;;;;;20.75;61.39;100282.03;5033007;28;20202;-77
2023/06/19 03:08:07;;;;;;;5.37;5.03;;;;;;;20.80;61.48;100287.03;5033270;28;20209;-77
2023/06/19 03:10:33;;;;;;;5.23;4.93;;;;;;;20.84;61.67;100288.53;5033554;28;20206;-77
2023/06/19 03:13:00;;;;;;;4.50;4.30;;;;;;;20.86;61.79;100291.94;5033288;28;20222;-77
2023/06/19 03:15:26;;;;;;;5.57;5.20;;;;;;;20.86;62.51;100277.81;5034246;28;20206;-77
2023/06/19 03:17:53;;;;;;;5.37;4.87;;;;;;;20.89;62.93;100256.38;5025514;28;20217;-78
2023/06/19 03:20:20;;;;;;;5.10;4.80;;;;;;;20.90;62.65;100266.91;5032395;28;20734;-77
2023/06/19 03:22:48;;;;;;;5.20;4.90;;;;;;;20.88;62.29;100267.97;5033057;28;20305;-77
2023/06/19 03:25:14;;;;;;;5.07;4.50;;;;;;;20.88;62.62;100278.56;5041202;28;20255;-77
2023/06/19 03:27:40;;;;;;;5.10;4.70;;;;;;;20.88;62.63;100265.31;5014396;28;20223;-77
2023/06/19 03:30:08;;;;;;;5.40;4.90;;;;;;;20.87;62.84;100272.44;5013872;28;20206;-78
2023/06/19 03:32:35;;;;;;;5.23;4.93;;;;;;;20.90;62.88;100266.06;5016135;28;20227;-78
2023/06/19 03:35:02;;;;;;;4.80;4.50;;;;;;;20.83;61.98;100274.41;5029092;28;20198;-77
2023/06/19 03:37:29;;;;;;;5.13;4.80;;;;;;;20.82;61.76;100287.78;5032523;28;20285;-77
2023/06/19 03:39:56;;;;;;;5.43;5.03;;;;;;;20.78;61.39;100295.06;5033135;28;20837;-77
2023/06/19 03:42:23;;;;;;;5.57;5.23;;;;;;;20.84;61.92;100304.44;5032975;28;20225;-77
2023/06/19 03:44:49;;;;;;;5.77;5.37;;;;;;;20.82;62.62;100295.75;5032799;28;20255;-77
2023/06/19 03:47:16;;;;;;;5.40;5.00;;;;;;;20.81;62.94;100280.75;5032710;28;20230;-79
2023/06/19 03:49:42;;;;;;;4.93;4.63;;;;;;;20.81;63.54;100263.06;5032993;28;20210;-77
2023/06/19 03:52:09;;;;;;;5.40;5.10;;;;;;;20.83;63.57;100252.31;5031686;28;20209;-78
2023/06/19 03:54:35;;;;;;;5.40;5.00;;;;;;;20.88;64.28;100241.44;5016440;28;20681;-78
2023/06/19 03:57:03;;;;;;;5.30;4.93;;;;;;;20.87;64.10;100234.41;5013423;28;20195;-77
2023/06/19 03:59:29;;;;;;;5.37;4.93;;;;;;;20.87;64.37;100229.09;5012680;28;20207;-77
2023/06/19 04:01:55;;;;;;;5.00;4.70;;;;;;;20.88;64.29;100231.66;5012880;28;20214;-77
2023/06/19 04:04:22;;;;;;;5.20;4.90;;;;;;;20.91;64.30;100235.91;5012782;28;20211;-77
2023/06/19 04:06:48;;;;;;;5.87;5.47;;;;;;;20.95;63.93;100246.25;5012950;28;20223;-77
2023/06/19 04:09:14;;;;;;;5.47;5.07;;;;;;;20.95;63.56;100251.53;5012364;28;20211;-77
2023/06/19 04:11:41;;;;;;;6.20;5.80;;;;;;;20.96;63.36;100253.22;5013180;28;20210;-77
2023/06/19 04:14:09;;;;;;;6.20;5.60;;;;;;;20.94;64.03;100262.25;5011852;28;20292;-78
2023/06/19 04:16:35;;;;;;;6.40;5.97;;;;;;;20.91;63.17;100263.31;5013452;28;20203;-77
2023/06/19 04:19:02;;;;;;;6.17;5.77;;;;;;;20.90;62.67;100280.16;5017870;28;20248;-77
2023/06/19 04:21:28;;;;;;;5.87;5.50;;;;;;;20.92;63.66;100296.84;5031987;28;20648;-77
2023/06/19 04:23:54;;;;;;;6.47;5.90;;;;;;;20.93;63.78;100272.03;5031203;28;20702;-77
2023/06/19 04:26:21;;;;;;;6.10;5.60;;;;;;;20.95;64.34;100261.28;5032284;28;20229;-77
2023/06/19 04:28:47;;;;;;;5.57;5.17;;;;;;;20.95;64.81;100246.25;5023940;28;20202;-77
2023/06/19 04:31:18;;;;;;;5.80;5.30;;;;;;;20.97;65.93;100220.44;5032185;28;20202;-78
2023/06/19 04:33:44;;;;;;;5.63;5.33;;;;;;;20.98;66.05;100206.22;5032154;28;20226;-78
2023/06/19 04:36:11;;;;;;;5.37;5.03;;;;;;;20.98;65.70;100222.13;5032084;28;20202;-77
2023/06/19 04:38:37;;;;;;;5.97;5.37;;;;;;;20.99;65.37;100218.56;5031750;28;20264;-77
2023/06/19 04:41:03;;;;;;;5.50;5.07;;;;;;;21.02;65.54;100225.44;5032108;28;20202;-77
2023/06/19 04:43:30;;;;;;;5.93;5.53;;;;;;;21.01;65.00;100237.03;5031605;28;20230;-77
2023/06/19 04:45:56;;;;;;;6.23;5.80;;;;;;;21.01;65.43;100250.31;5032419;28;20202;-77
2023/06/19 04:48:25;;;;;;;5.50;5.20;;;;;;;21.00;64.90;100241.47;5032429;28;20449;-78
2023/06/19 04:50:52;;;;;;;6.10;5.60;;;;;;;21.01;64.34;100260.91;5024826;28;20256;-77
2023/06/19 04:53:19;;;;;;;5.70;5.40;;;;;;;20.99;65.29;100254.81;5031398;28;20237;-80
2023/06/19 04:55:45;;;;;;;5.30;5.00;;;;;;;20.97;65.60;100243.47;5040701;28;20199;-77
2023/06/19 04:58:11;;;;;;;5.33;5.03;;;;;;;20.97;66.20;100227.53;5012342;28;20210;-77
2023/06/19 05:00:38;;;;;;;6.13;5.73;;;;;;;20.96;65.74;100212.59;5012239;28;20210;-77
2023/06/19 05:03:04;;;;;;;5.77;5.37;;;;;;;20.97;65.47;100216.94;5024709;28;20226;-77
2023/06/19 05:05:32;;;;;;;6.13;5.73;;;;;;;20.99;66.17;100215.91;5031113;28;20206;-78
2023/06/19 05:07:58;;;;;;;5.97;5.57;;;;;;;20.96;66.46;100212.59;5031864;28;20226;-78
2023/06/19 05:10:25;;;;;;;6.47;5.97;;;;;;;20.96;65.99;100212.59;5032107;28;20206;-78
2023/06/19 05:12:51;;;;;;;6.00;5.60;;;;;;;20.95;66.85;100198.47;5032009;28;20222;-76
2023/06/19 05:15:17;;;;;;;6.90;6.30;;;;;;;20.94;66.63;100195.91;5032005;28;20202;-79
2023/06/19 05:17:46;;;;;;;5.50;5.20;;;;;;;20.93;65.46;100216.31;5031715;28;20622;-79
2023/06/19 05:20:15;;;;;;;6.53;5.93;;;;;;;20.94;65.47;100255.13;5032045;28;20202;-78
2023/06/19 05:22:43;;;;;;;6.50;5.97;;;;;;;20.90;66.87;100231.56;5031027;28;20232;-78
2023/06/19 05:25:10;;;;;;;7.17;6.77;;;;;;;20.91;67.23;100217.34;5033881;28;20259;-78
2023/06/19 05:27:36;;;;;;;7.07;6.57;;;;;;;20.94;66.95;100214.50;5037069;28;20719;-78
2023/06/19 05:30:03;;;;;;;6.73;6.07;;;;;;;20.95;66.47;100222.34;5038755;28;20203;-77
2023/06/19 05:32:30;;;;;;;13.27;5.83;;;;;;;20.97;66.73;100239.03;5016035;28;20305;-77
2023/06/19 05:34:56;;;;;;;5.97;5.60;;;;;;;20.97;67.15;100231.06;5016168;28;20218;-78
2023/06/19 05:37:23;;;;;;;5.97;5.50;;;;;;;20.97;66.88;100238.16;5015648;28;20260;-79
2023/06/19 05:39:59;;;;;;;6.60;6.17;;;;;;;20.99;67.48;100229.16;5016423;28;20213;-79
2023/06/19 05:42:25;;;;;;;6.90;6.30;;;;;;;21.01;67.98;100216.66;5033366;28;20245;-79
2023/06/19 05:44:52;;;;;;;6.47;6.00;;;;;;;21.01;67.79;100198.06;5028879;28;20215;-79
2023/06/19 05:47:20;;;;;;;65.17;23.30;;;;;;;21.08;69.49;100189.69;5032158;28;20618;-79
2023/06/19 05:49:47;;;;;;;7.67;6.97;;;;;;;21.12;70.20;100146.06;5036206;28;20297;-78
2023/06/19 05:52:13;;;;;;;53.57;18.97;;;;;;;21.16;70.02;100137.78;5032508;28;20227;-78
2023/06/19 05:54:40;;;;;;;14.57;9.33;;;;;;;21.21;69.98;100125.06;5066491;23;20241;-80
2023/06/19 05:57:08;;;;;;;19.50;11.40;;;;;;;21.24;70.74;100126.63;5056640;28;20562;-80
2023/06/19 05:59:34;;;;;;;6.20;5.80;;;;;;;21.22;70.68;100115.28;5056743;28;20255;-81
2023/06/19 06:02:03;;;;;;;11.60;9.20;;;;;;;21.21;70.68;100125.06;5057355;28;20198;-82
2023/06/19 06:04:30;;;;;;;15.17;9.47;;;;;;;21.18;69.94;100141.19;5058657;28;20308;-81
2023/06/19 06:06:56;;;;;;;11.13;7.60;;;;;;;21.20;70.67;100133.13;5058212;28;20225;-79
2023/06/19 06:09:23;;;;;;;8.07;6.87;;;;;;;21.25;71.28;100111.56;5058084;28;20263;-80
2023/06/19 06:11:49;;;;;;;14.73;9.20;;;;;;;21.25;70.42;100128.34;5058349;28;20201;-82
2023/06/19 06:14:17;;;;;;;6.17;5.80;;;;;;;21.21;69.31;100146.28;5057755;28;20233;-80
2023/06/19 06:16:43;;;;;;;11.83;9.33;;;;;;;21.26;70.25;100153.09;5057197;28;20205;-80
2023/06/19 06:19:09;;;;;;;12.97;9.93;;;;;;;21.30;70.40;100160.72;5053856;28;20206;-81
2023/06/19 06:21:36;;;;;;;15.37;10.27;;;;;;;21.39;71.41;100138.88;5048963;28;20241;-79
2023/06/19 06:24:02;;;;;;;8.87;8.07;;;;;;;21.49;72.07;100123.19;5056137;28;20225;-80
2023/06/19 06:26:28;;;;;;;7.83;7.13;;;;;;;21.45;70.78;100129.66;5040718;28;20214;-79
2023/06/19 06:28:55;;;;;;;7.13;6.63;;;;;;;21.35;70.43;100153.31;5056981;28;20640;-80
2023/06/19 06:31:24;;;;;;;7.27;6.50;;;;;;;21.35;70.98;100168.41;5049438;28;20222;-80
2023/06/19 06:33:50;;;;;;;6.93;6.50;;;;;;;21.39;71.81;100159.28;5047674;28;20225;-80
2023/06/19 06:36:16;;;;;;;7.10;6.70;;;;;;;21.44;71.71;100143.88;5055856;28;20251;-80
2023/06/19 06:38:43;;;;;;;6.53;6.03;;;;;;;21.44;71.22;100162.47;5055672;28;20209;-81
2023/06/19 06:41:09;;;;;;;6.80;6.40;;;;;;;21.42;69.23;100188.25;5057310;28;20243;-81
2023/06/19 06:43:35;;;;;;;7.83;6.70;;;;;;;21.47;70.89;100201.28;5056664;28;20226;-80
2023/06/19 06:46:02;;;;;;;6.73;6.23;;;;;;;21.52;71.69;100191.16;5058003;28;20261;-81
2023/06/19 06:48:30;;;;;;;9.17;7.10;;;;;;;21.57;72.13;100166.00;5050170;28;20225;-80
2023/06/19 06:51:00;;;;;;;7.33;6.80;;;;;;;21.66;71.92;100153.03;5033231;28;20260;-80
2023/06/19 06:53:28;;;;;;;6.90;6.40;;;;;;;21.73;72.61;100144.53;5056097;28;20308;-81
2023/06/19 06:55:54;;;;;;;7.57;6.90;;;;;;;21.78;73.38;100139.75;5041341;28;20208;-82
2023/06/19 06:58:21;;;;;;;7.43;6.70;;;;;;;21.85;72.01;100145.47;5058562;28;20209;-83
2023/06/19 07:00:48;;;;;;;7.47;6.97;;;;;;;21.87;71.68;100164.81;5061345;28;20206;-83
2023/06/19 07:03:14;;;;;;;7.40;6.80;;;;;;;21.74;62.90;100244.53;5060801;28;20285;-83
2023/06/19 07:05:42;;;;;;;6.87;6.37;;;;;;;21.87;63.42;100392.50;5061819;28;20213;-83
2023/06/19 07:08:08;;;;;;;7.20;6.60;;;;;;;22.01;63.90;100437.63;5060541;28;20225;-83
2023/06/19 07:10:34;;;;;;;7.30;6.80;;;;;;;22.20;68.80;100387.56;5061289;28;20210;-82
2023/06/19 07:13:01;;;;;;;6.43;5.93;;;;;;;22.27;67.20;100388.00;5060748;28;20263;-83
2023/06/19 07:15:27;;;;;;;7.50;6.80;;;;;;;22.27;67.68;100352.59;5061223;28;20210;-82
2023/06/19 07:17:54;;;;;;;6.83;6.33;;;;;;;22.21;63.07;100397.22;5044189;28;20197;-82
2023/06/19 07:20:20;;;;;;;7.07;6.47;;;;;;;22.27;67.15;100392.50;5053132;28;20221;-81
2023/06/19 07:22:51;;;;;;;6.70;6.30;;;;;;;22.27;66.36;100395.16;5045115;28;20209;-80
2023/06/19 07:25:17;;;;;;;6.93;6.47;;;;;;;22.23;67.59;100351.06;5055667;28;20239;-78
2023/06/19 07:27:43;;;;;;;6.53;6.00;;;;;;;22.23;67.95;100332.47;5054709;28;20233;-79
2023/06/19 07:30:11;;;;;;;7.40;6.90;;;;;;;22.29;67.39;100332.91;5040493;28;20203;-79
2023/06/19 07:32:37;;;;;;;6.87;6.37;;;;;;;22.32;68.06;100353.97;5051402;28;20273;-79
2023/06/19 07:35:04;;;;;;;6.70;6.30;;;;;;;22.35;64.75;100371.53;5053514;28;20221;-78
2023/06/19 07:37:30;;;;;;;6.97;6.50;;;;;;;22.37;66.91;100380.25;5052822;28;20202;-77
2023/06/19 07:39:58;;;;;;;7.00;6.60;;;;;;;22.44;66.65;100365.59;5054157;28;20205;-79
2023/06/19 07:42:24;;;;;;;6.80;6.30;;;;;;;22.47;68.46;100324.59;5053775;28;20202;-79
2023/06/19 07:44:51;;;;;;;7.30;6.90;;;;;;;22.49;67.50;100310.22;5052998;28;20227;-78
2023/06/19 07:47:18;;;;;;;7.07;6.67;;;;;;;22.56;63.81;100340.78;5053270;28;20643;-79
2023/06/19 07:49:45;;;;;;;7.33;6.93;;;;;;;22.69;61.61;100382.47;5049362;28;20288;-79
2023/06/19 07:52:12;;;;;;;7.47;6.87;;;;;;;22.83;63.52;100488.78;5045567;28;20667;-79
2023/06/19 07:54:49;;;;;;;7.30;6.70;;;;;;;22.95;57.76;100554.53;5052655;28;20279;-79
2023/06/19 07:57:16;;;;;;;7.23;6.73;;;;;;;23.05;56.07;100644.44;5053910;28;20197;-79
2023/06/19 07:59:44;;;;;;;7.43;6.93;;;;;;;23.19;55.26;100695.81;5052921;28;20263;-80
2023/06/19 08:02:11;;;;;;;6.90;6.50;;;;;;;23.32;55.34;100748.25;5052892;28;20239;-80
2023/06/19 08:04:37;;;;;;;8.00;7.50;;;;;;;23.43;54.73;100769.69;5052703;28;20254;-79
2023/06/19 08:07:04;;;;;;;7.40;7.00;;;;;;;23.51;53.93;100775.34;5053792;28;20204;-80
2023/06/19 08:09:30;;;;;;;7.20;6.70;;;;;;;23.62;55.52;100771.94;5054357;28;20590;-81
2023/06/19 08:11:56;;;;;;;10.33;6.80;;;;;;;23.71;54.90;100774.00;5051617;28;20200;-79
2023/06/19 08:14:24;;;;;;;6.73;6.33;;;;;;;23.80;54.67;100775.19;5041428;28;20225;-79
2023/06/19 08:16:50;;;;;;;8.03;7.43;;;;;;;23.84;54.35;100760.69;5054082;28;20217;-79
2023/06/19 08:19:17;;;;;;;6.37;5.97;;;;;;;23.96;54.46;100757.19;5049576;28;20279;-79
2023/06/19 08:21:43;;;;;;;7.10;6.70;;;;;;;24.04;53.75;100774.44;5044125;28;20582;-78
2023/06/19 08:24:09;;;;;;;7.07;6.60;;;;;;;24.09;56.11;100775.00;5052513;28;20707;-81
2023/06/19 08:26:36;;;;;;;7.67;7.00;;;;;;;24.14;53.40;100746.16;5053786;28;20232;-79
2023/06/19 08:29:03;;;;;;;6.80;6.40;;;;;;;24.16;55.74;100754.91;5053256;28;20290;-80
2023/06/19 08:31:30;;;;;;;7.23;6.70;;;;;;;24.25;54.84;100740.91;5051829;28;20209;-81
2023/06/19 08:33:57;;;;;;;6.70;6.23;;;;;;;24.28;55.42;100714.03;5051575;28;20217;-80
2023/06/19 08:36:24;;;;;;;7.03;6.53;;;;;;;24.29;54.23;100731.72;5055086;28;20201;-79
2023/06/19 08:38:52;;;;;;;6.70;6.30;;;;;;;24.37;54.60;100725.84;5051377;28;20243;-79
2023/06/19 08:41:19;;;;;;;7.13;6.73;;;;;;;24.37;54.91;100729.34;5054797;28;20570;-80
2023/06/19 08:43:46;;;;;;;6.80;6.20;;;;;;;24.43;54.00;100727.22;5052739;28;20233;-80
2023/06/19 08:46:15;;;;;;;7.17;6.70;;;;;;;24.46;54.62;100722.50;5053276;28;20201;-79
2023/06/19 08:48:43;;;;;;;7.50;6.97;;;;;;;24.52;55.91;100710.56;5048638;28;20227;-79
2023/06/19 08:51:13;;;;;;;7.83;7.33;;;;;;;24.54;55.55;100698.81;5049135;28;20206;-81
2023/06/19 08:53:46;;;;;;;8.03;7.53;;;;;;;24.59;55.36;100650.41;5050903;28;20236;-78
2023/06/19 08:56:12;;;;;;;8.03;7.33;;;;;;;24.64;55.33;100687.44;5054790;28;20208;-80
2023/06/19 08:58:39;;;;;;;7.60;7.10;;;;;;;24.67;56.25;100690.72;5053490;28;20249;-80
2023/06/19 09:01:05;;;;;;;7.23;6.73;;;;;;;24.77;57.16;100677.56;5059748;28;20205;-80
2023/06/19 09:03:31;;;;;;;7.80;7.20;;;;;;;24.86;56.68;100652.00;5057527;28;20229;-80
2023/06/19 09:06:04;;;;;;;7.73;7.13;;;;;;;24.94;57.03;100644.25;5054257;28;20212;-79
2023/06/19 09:09:00;;;;;;;7.80;7.30;;;;;;;24.93;56.02;100640.72;5046560;28;20892;-81
2023/06/19 09:11:29;;;;;;;8.27;6.53;;;;;;;25.03;56.02;100653.38;5045070;28;20555;-79
2023/06/19 09:13:57;;;;;;;6.60;6.20;;;;;;;25.08;56.64;100652.06;5053992;28;20224;-77
2023/06/19 09:16:24;;;;;;;6.63;6.13;;;;;;;25.06;56.70;100635.28;5054094;28;20209;-80
2023/06/19 09:18:56;;;;;;;6.20;5.80;;;;;;;25.06;56.43;100643.31;5049235;28;20201;-79
2023/06/19 09:21:23;;;;;;;6.83;6.23;;;;;;;25.11;55.43;100651.84;5037179;28;20255;-78
2023/06/19 09:23:51;;;;;;;5.93;5.53;;;;;;;25.27;57.69;100634.63;5051907;28;20753;-77
2023/06/19 09:26:19;;;;;;;6.00;5.63;;;;;;;25.35;55.84;100640.22;5055127;28;20205;-79
2023/06/19 09:28:46;;;;;;;6.37;5.87;;;;;;;25.42;55.26;100644.13;5052210;28;20254;-79
2023/06/19 09:31:12;;;;;;;6.50;6.00;;;;;;;25.40;55.04;100675.47;5046939;28;20212;-78
2023/06/19 09:33:40;;;;;;;6.23;5.83;;;;;;;25.45;56.24;100659.94;5053585;28;20232;-77
2023/06/19 09:36:07;;;;;;;6.83;6.37;;;;;;;25.53;55.49;100667.34;5046516;28;20202;-78
2023/06/19 09:38:36;;;;;;;7.10;6.70;;;;;;;25.43;55.12;100679.72;5053727;28;20217;-79
2023/06/19 09:41:04;;;;;;;7.20;6.63;;;;;;;25.59;56.22;100666.88;5047505;28;20209;-81
2023/06/19 09:43:36;;;;;;;5.73;5.43;;;;;;;25.65;55.19;100670.88;5054985;28;20226;-80
2023/06/19 09:46:04;;;;;;;7.40;6.90;;;;;;;25.74;54.91;100691.53;5037001;28;20202;-78
2023/06/19 09:48:32;;;;;;;6.17;5.77;;;;;;;25.66;55.52;100688.63;5035121;28;20643;-80
2023/06/19 09:51:03;;;;;;;6.30;5.97;;;;;;;25.51;55.03;100701.34;5035099;28;20206;-80
2023/06/19 09:53:30;;;;;;;6.33;5.93;;;;;;;25.34;55.59;100700.84;5035087;28;20241;-78
2023/06/19 09:55:57;;;;;;;7.93;6.13;;;;;;;25.55;55.59;100684.13;5035567;28;20217;-80
2023/06/19 09:58:24;;;;;;;6.33;5.93;;;;;;;25.50;55.50;100673.78;5035459;28;20587;-81
2023/06/19 10:00:52;;;;;;;6.17;5.77;;;;;;;25.48;56.82;100675.72;5036519;28;20566;-80
2023/06/19 10:03:18;;;;;;;5.80;5.50;;;;;;;25.20;58.49;100630.72;5035198;28;20225;-81
2023/06/19 10:05:45;;;;;;;6.87;6.37;;;;;;;25.29;57.26;100614.84;5036539;28;20264;-79
2023/06/19 10:08:12;;;;;;;6.80;6.27;;;;;;;25.24;56.93;100640.22;5035541;28;20241;-80
2023/06/19 10:10:47;;;;;;;6.77;6.33;;;;;;;25.46;57.53;100623.38;5037215;28;20206;-80
2023/06/19 10:13:15;;;;;;;6.87;6.47;;;;;;;25.56;57.29;100632.34;5038754;28;20238;-80
2023/06/19 10:15:43;;;;;;;6.03;5.63;;;;;;;25.60;56.98;100639.16;5039617;28;20206;-80
2023/06/19 10:18:16;;;;;;;7.00;6.33;;;;;;;25.42;56.60;100652.16;5039533;28;20198;-80
2023/06/19 10:20:43;;;;;;;6.80;6.30;;;;;;;25.37;57.71;100657.00;5039050;28;20684;-80
2023/06/19 10:23:12;;;;;;;6.43;5.83;;;;;;;25.31;58.24;100647.66;5038391;28;20299;-80
2023/06/19 10:25:40;;;;;;;6.97;6.43;;;;;;;25.14;59.33;100608.84;5039304;28;20269;-81
2023/06/19 10:28:17;;;;;;;6.43;6.03;;;;;;;25.33;59.50;100554.84;5038858;28;20217;-79
2023/06/19 10:30:44;;;;;;;7.23;6.77;;;;;;;25.43;57.94;100570.13;5038715;28;20205;-80
2023/06/19 10:33:11;;;;;;;6.77;6.37;;;;;;;25.55;59.08;100598.59;5038757;28;20229;-81
2023/06/19 10:35:42;;;;;;;7.50;7.00;;;;;;;25.62;58.30;100581.06;5039406;28;20214;-80
2023/06/19 10:38:09;;;;;;;7.30;6.80;;;;;;;25.56;57.03;100627.00;5038575;28;20202;-79
2023/06/19 10:40:37;;;;;;;7.53;7.03;;;;;;;25.81;57.65;100622.38;5040000;28;20209;-80
2023/06/19 10:43:03;;;;;;;7.20;6.50;;;;;;;25.82;56.64;100630.28;5039419;28;20273;-80
2023/06/19 10:45:30;;;;;;;7.67;7.00;;;;;;;25.88;56.40;100658.34;5039925;28;20229;-80
2023/06/19 10:48:01;;;;;;;7.00;6.60;;;;;;;26.03;57.02;100648.31;5039686;28;20432;-80
2023/06/19 10:50:29;;;;;;;7.60;7.20;;;;;;;25.82;56.02;100654.34;5038175;28;20625;-79
2023/06/19 10:52:55;;;;;;;6.83;6.43;;;;;;;25.91;56.16;100668.84;5037585;28;20206;-78
2023/06/19 10:55:22;;;;;;;7.57;7.17;;;;;;;26.02;55.57;100684.88;5037106;28;20206;-79
2023/06/19 10:57:49;;;;;;;7.93;7.43;;;;;;;25.92;55.44;100691.94;5038624;28;20210;-80
2023/06/19 11:00:24;;;;;;;7.03;6.63;;;;;;;25.93;56.09;100681.13;5039347;28;20696;-81
2023/06/19 11:02:50;;;;;;;7.63;7.17;;;;;;;25.89;57.31;100658.25;5019395;28;20209;-81
2023/06/19 11:05:17;;;;;;;7.33;6.83;;;;;;;25.74;57.94;100636.22;5021025;28;20207;-81
2023/06/19 11:07:51;;;;;;;6.60;6.10;;;;;;;25.71;56.99;100630.31;5020575;28;20837;-81
2023/06/19 11:10:20;;;;;;;6.27;5.87;;;;;;;25.71;57.03;100633.81;5018619;28;20774;-80
2023/06/19 11:12:46;;;;;;;6.20;5.80;;;;;;;25.90;56.87;100609.13;5017715;28;20499;-79
2023/06/19 11:15:13;;;;;;;5.63;5.33;;;;;;;25.92;57.72;100625.91;5017478;28;20686;-79
2023/06/19 11:17:39;;;;;;;5.97;5.47;;;;;;;26.03;58.02;100608.16;5035269;28;20206;-80
2023/06/19 11:20:11;;;;;;;5.53;5.23;;;;;;;25.91;57.54;100608.19;5037108;28;20202;-79
2023/06/19 11:22:39;;;;;;;5.70;5.20;;;;;;;25.88;58.70;100603.03;5036675;28;20206;-77
2023/06/19 11:25:08;;;;;;;4.90;4.60;;;;;;;26.02;57.84;100604.63;5035434;28;20269;-80